Cuneyt Solakoglu — TCTN4 — position and weather

sailwx.info

Track history (hours):
 
Tides and Currents Weather Stations Pressure Air Temp Water Temp Dewpoint Dewpoint Depression Visibility Wind Speed Wind Dir Waves Ship Positions

Cuneyt Solakoglu

Last reported at 2015-Sep-02 07:33 UTC. Time now 2015-Sep-02 08:33 UTC.
Position N 43°06' E 005°54'.

Length 193 m; draft 6.6 m.

Type: Ship (hazmat cat A). MMSI: 271002676.

Date/timePositionNaut miles runAvg speedWind from/ knotsBaromVisibWave heightAir tempDewpointWater temp
2015-Sep-02 07:33N 43°06' E 005°54'0 0.4
2015-Sep-02 06:33N 43°06' E 005°54'1211.9
2015-Sep-02 05:33N 42°56' E 006°02'5518.3
2015-Sep-02 02:33N 42°23' E 007°02'17118.0
2015-Sep-01 17:04N 40°59' E 010°21'1119.5
2015-Sep-01 16:30N 40°53' E 010°33'2520.2
2015-Sep-01 15:17N 40°39' E 011°01'3519.9
2015-Sep-01 13:31N 40°22' E 011°40'1919.7
2015-Sep-01 12:34N 40°12' E 012°02'4519.8
2015-Sep-01 10:16N 39°48' E 012°52'1420.1
2015-Sep-01 09:34N 39°40' E 013°08'2620.2
2015-Sep-01 08:16N 39°27' E 013°37'5719.8
2015-Sep-01 05:22N 38°57' E 014°40'1619.9
2015-Sep-01 04:33N 38°48' E 014°58'2019.7
2015-Sep-01 03:33N 38°37' E 015°18'1919.4
2015-Sep-01 02:33N 38°24' E 015°36'1413.6
2015-Sep-01 01:34N 38°10' E 015°37'1817.4
2015-Sep-01 00:30N 37°53' E 015°46'4420.1
2015-Aug-31 22:18N 37°41' E 016°40'3819.9
2015-Aug-31 20:23N 37°31' E 017°26'1719.9
2015-Aug-31 19:32N 37°26' E 017°47'27018.9
2015-Aug-31 05:15N 36°31' E 023°18'7519.7
2015-Aug-31 01:25N 37°34' E 024°09'1918.8
2015-Aug-31 00:25N 37°49' E 024°24'62 1.4
2015-Aug-29 04:31N 38°40' E 025°07'5917.7
2015-Aug-29 01:11N 37°48' E 024°33'5017.9
2015-Aug-28 22:25N 37°07' E 023°58'1618.4
2015-Aug-28 21:34N 36°54' E 023°46'1818.4
2015-Aug-28 20:33N 36°40' E 023°31'36818.4
2015-Aug-28 00:33N 37°51' E 015°56'1818.5
2015-Aug-27 23:33N 37°58' E 015°35'1817.8
2015-Aug-27 22:34N 38°15' E 015°38'1615.7
2015-Aug-27 21:33N 38°28' E 015°26'1919.1
2015-Aug-27 20:34N 38°41' E 015°08'1918.9
2015-Aug-27 19:34N 38°52' E 014°49'23719.0
2015-Aug-27 07:03N 40°55' E 010°24'14218.7
2015-Aug-26 23:27N 42°02' E 007°37'2619.5
2015-Aug-26 22:08N 42°18' E 007°09'1319.5
2015-Aug-26 21:29N 42°25' E 006°56'1819.5
2015-Aug-26 20:33N 42°36' E 006°36'2019.1
2015-Aug-26 19:29N 42°48' E 006°13'1817.5
2015-Aug-26 18:28N 43°02' E 005°58'6 6.0
2015-Aug-26 17:31N 43°06' E 005°54'0 0.0
2015-Aug-26 16:33N 43°06' E 005°54'0 0.0
2015-Aug-26 15:33N 43°06' E 005°54'0 0.0
2015-Aug-26 14:33N 43°06' E 005°54'0 0.0
2015-Aug-26 13:32N 43°06' E 005°54'0 0.0
2015-Aug-26 12:32N 43°06' E 005°54'0 0.0
2015-Aug-26 11:31N 43°06' E 005°54'0 0.0
2015-Aug-26 10:31N 43°06' E 005°54'0 0.0
2015-Aug-26 09:33N 43°06' E 005°54'0 0.0
2015-Aug-26 08:33N 43°06' E 005°54'0 0.0
2015-Aug-26 07:33N 43°06' E 005°54'6 5.8
2015-Aug-26 06:33N 43°03' E 005°60'44619.1
2015-Aug-25 07:13N 39°06' E 014°22'1319.9
2015-Aug-25 06:33N 38°59' E 014°36'2020.0
2015-Aug-25 05:33N 38°48' E 014°58'2019.9
2015-Aug-25 04:32N 38°36' E 015°18'1919.7
2015-Aug-25 03:33N 38°23' E 015°37'1413.8
2015-Aug-25 02:33N 38°09' E 015°36'1717.1
2015-Aug-25 01:33N 37°54' E 015°45'2019.9
2015-Aug-25 00:33N 37°49' E 016°09'2019.7
2015-Aug-24 23:33N 37°43' E 016°33'2019.6
2015-Aug-24 22:33N 37°37' E 016°57'1919.1
2015-Aug-24 21:33N 37°32' E 017°20'32417.0
2015-Aug-24 02:28N 37°34' E 024°09'1919.5
2015-Aug-24 01:31N 37°49' E 024°24'27118.1
2015-Aug-23 10:33N 40°52' E 028°42'1919.1
2015-Aug-23 09:33N 40°49' E 029°07'  
Track history (hours):
 
Tides and Currents Weather Stations Pressure Air Temp Water Temp Dewpoint Dewpoint Depression Visibility Wind Speed Wind Dir Waves Ship Positions

Cuneyt Solakoglu

Last reported at 2015-Sep-02 07:33 UTC. Time now 2015-Sep-02 08:33 UTC.
Position N 43°06' E 005°54'.

Length 193 m; draft 6.6 m.

Type: Ship (hazmat cat A). MMSI: 271002676.

Date/timePositionNaut miles runAvg speedWind from/ knotsBaromVisibWave heightAir tempDewpointWater temp
2015-Sep-02 07:33N 43°06' E 005°54'0 0.4
2015-Sep-02 06:33N 43°06' E 005°54'1211.9
2015-Sep-02 05:33N 42°56' E 006°02'5518.3
2015-Sep-02 02:33N 42°23' E 007°02'17118.0
2015-Sep-01 17:04N 40°59' E 010°21'1119.5
2015-Sep-01 16:30N 40°53' E 010°33'2520.2
2015-Sep-01 15:17N 40°39' E 011°01'3519.9
2015-Sep-01 13:31N 40°22' E 011°40'1919.7
2015-Sep-01 12:34N 40°12' E 012°02'4519.8
2015-Sep-01 10:16N 39°48' E 012°52'1420.1
2015-Sep-01 09:34N 39°40' E 013°08'2620.2
2015-Sep-01 08:16N 39°27' E 013°37'5719.8
2015-Sep-01 05:22N 38°57' E 014°40'1619.9
2015-Sep-01 04:33N 38°48' E 014°58'2019.7
2015-Sep-01 03:33N 38°37' E 015°18'1919.4
2015-Sep-01 02:33N 38°24' E 015°36'1413.6
2015-Sep-01 01:34N 38°10' E 015°37'1817.4
2015-Sep-01 00:30N 37°53' E 015°46'4420.1
2015-Aug-31 22:18N 37°41' E 016°40'3819.9
2015-Aug-31 20:23N 37°31' E 017°26'1719.9
2015-Aug-31 19:32N 37°26' E 017°47'27018.9
2015-Aug-31 05:15N 36°31' E 023°18'7519.7
2015-Aug-31 01:25N 37°34' E 024°09'1918.8
2015-Aug-31 00:25N 37°49' E 024°24'62 1.4
2015-Aug-29 04:31N 38°40' E 025°07'5917.7
2015-Aug-29 01:11N 37°48' E 024°33'5017.9
2015-Aug-28 22:25N 37°07' E 023°58'1618.4
2015-Aug-28 21:34N 36°54' E 023°46'1818.4
2015-Aug-28 20:33N 36°40' E 023°31'36818.4
2015-Aug-28 00:33N 37°51' E 015°56'1818.5
2015-Aug-27 23:33N 37°58' E 015°35'1817.8
2015-Aug-27 22:34N 38°15' E 015°38'1615.7
2015-Aug-27 21:33N 38°28' E 015°26'1919.1
2015-Aug-27 20:34N 38°41' E 015°08'1918.9
2015-Aug-27 19:34N 38°52' E 014°49'23719.0
2015-Aug-27 07:03N 40°55' E 010°24'14218.7
2015-Aug-26 23:27N 42°02' E 007°37'2619.5
2015-Aug-26 22:08N 42°18' E 007°09'1319.5
2015-Aug-26 21:29N 42°25' E 006°56'1819.5
2015-Aug-26 20:33N 42°36' E 006°36'2019.1
2015-Aug-26 19:29N 42°48' E 006°13'1817.5
2015-Aug-26 18:28N 43°02' E 005°58'6 6.0
2015-Aug-26 17:31N 43°06' E 005°54'0 0.0
2015-Aug-26 16:33N 43°06' E 005°54'0 0.0
2015-Aug-26 15:33N 43°06' E 005°54'0 0.0
2015-Aug-26 14:33N 43°06' E 005°54'0 0.0
2015-Aug-26 13:32N 43°06' E 005°54'0 0.0
2015-Aug-26 12:32N 43°06' E 005°54'0 0.0
2015-Aug-26 11:31N 43°06' E 005°54'0 0.0
2015-Aug-26 10:31N 43°06' E 005°54'0 0.0
2015-Aug-26 09:33N 43°06' E 005°54'0 0.0
2015-Aug-26 08:33N 43°06' E 005°54'0 0.0
2015-Aug-26 07:33N 43°06' E 005°54'6 5.8
2015-Aug-26 06:33N 43°03' E 005°60'44619.1
2015-Aug-25 07:13N 39°06' E 014°22'1319.9
2015-Aug-25 06:33N 38°59' E 014°36'2020.0
2015-Aug-25 05:33N 38°48' E 014°58'2019.9
2015-Aug-25 04:32N 38°36' E 015°18'1919.7
2015-Aug-25 03:33N 38°23' E 015°37'1413.8
2015-Aug-25 02:33N 38°09' E 015°36'1717.1
2015-Aug-25 01:33N 37°54' E 015°45'2019.9
2015-Aug-25 00:33N 37°49' E 016°09'2019.7
2015-Aug-24 23:33N 37°43' E 016°33'2019.6
2015-Aug-24 22:33N 37°37' E 016°57'1919.1
2015-Aug-24 21:33N 37°32' E 017°20'32417.0
2015-Aug-24 02:28N 37°34' E 024°09'1919.5
2015-Aug-24 01:31N 37°49' E 024°24'27118.1
2015-Aug-23 10:33N 40°52' E 028°42'1919.1
2015-Aug-23 09:33N 40°49' E 029°07'  

Dump ship's entire track history